createdAt,value
2023-10-18T00:01:40.582Z,1.90
2023-10-18T00:04:08.308Z,2.13
2023-10-18T00:06:37.622Z,1.90
2023-10-18T00:09:19.080Z,1.80
2023-10-18T00:11:46.615Z,2.00
2023-10-18T00:14:14.269Z,1.80
2023-10-18T00:16:41.772Z,2.00
2023-10-18T00:19:09.502Z,2.23
2023-10-18T00:21:38.916Z,2.20
2023-10-18T00:24:07.104Z,2.00
2023-10-18T00:26:34.599Z,1.90
2023-10-18T00:29:02.129Z,2.00
2023-10-18T00:31:29.705Z,2.10
2023-10-18T00:33:57.296Z,2.00
2023-10-18T00:36:25.512Z,1.90
2023-10-18T00:38:55.427Z,2.10
2023-10-18T00:41:24.106Z,1.80
2023-10-18T00:43:54.325Z,1.90
2023-10-18T00:46:23.867Z,2.10
2023-10-18T00:48:52.281Z,2.20
2023-10-18T00:51:20.414Z,2.20
2023-10-18T00:53:48.857Z,2.07
2023-10-18T00:56:17.698Z,2.30
2023-10-18T00:58:47.288Z,2.10
2023-10-18T01:01:15.284Z,2.20
2023-10-18T01:03:49.167Z,2.10
2023-10-18T01:06:21.540Z,2.13
2023-10-18T01:08:49.707Z,2.00
2023-10-18T01:11:23.741Z,2.20
2023-10-18T01:13:51.379Z,2.20
2023-10-18T01:16:22.942Z,2.23
2023-10-18T01:18:53.343Z,2.23
2023-10-18T01:21:22.407Z,2.30
2023-10-18T01:23:52.088Z,2.20
2023-10-18T01:26:22.287Z,2.07
2023-10-18T01:28:50.377Z,2.00
2023-10-18T01:31:17.942Z,2.20
2023-10-18T01:33:47.284Z,2.30
2023-10-18T01:36:15.975Z,2.27
2023-10-18T01:38:44.928Z,2.37
2023-10-18T01:41:26.387Z,2.13
2023-10-18T01:43:56.966Z,2.20
2023-10-18T01:46:25.017Z,2.17
2023-10-18T01:48:53.587Z,2.40
2023-10-18T01:51:21.339Z,2.37
2023-10-18T01:53:51.670Z,2.20
2023-10-18T01:56:21.269Z,2.27
2023-10-18T01:58:48.791Z,2.40
2023-10-18T02:01:18.361Z,2.33
2023-10-18T02:03:46.831Z,2.20
2023-10-18T02:06:16.873Z,2.40
2023-10-18T02:08:45.049Z,2.60
2023-10-18T02:11:12.952Z,2.33
2023-10-18T02:13:40.980Z,2.47
2023-10-18T02:16:15.681Z,2.40
2023-10-18T02:18:47.812Z,2.37
2023-10-18T02:21:16.310Z,2.40
2023-10-18T02:23:47.910Z,2.17
2023-10-18T02:26:31.201Z,2.50
2023-10-18T02:29:00.787Z,2.37
2023-10-18T02:31:30.243Z,2.60
2023-10-18T02:33:59.398Z,2.50
2023-10-18T02:36:34.255Z,2.40
2023-10-18T02:39:02.198Z,2.90
2023-10-18T02:41:29.995Z,2.60
2023-10-18T02:43:58.832Z,2.70
2023-10-18T02:46:26.614Z,2.20
2023-10-18T02:48:54.676Z,2.33
2023-10-18T02:51:24.260Z,2.60
2023-10-18T02:53:52.556Z,2.50
2023-10-18T02:56:28.015Z,2.70
2023-10-18T02:58:59.394Z,2.63
2023-10-18T03:01:26.979Z,2.30
2023-10-18T03:03:56.598Z,2.50
2023-10-18T03:06:29.178Z,2.50
2023-10-18T03:08:59.460Z,2.90
2023-10-18T03:11:27.181Z,2.60
2023-10-18T03:13:58.660Z,2.90
2023-10-18T03:16:40.656Z,2.70
2023-10-18T03:19:13.313Z,2.90
2023-10-18T03:21:48.300Z,9.37
2023-10-18T03:24:15.921Z,13.77
2023-10-18T03:26:43.462Z,8.07
2023-10-18T03:29:13.474Z,4.40
2023-10-18T03:31:44.573Z,3.83
2023-10-18T03:34:19.111Z,3.30
2023-10-18T03:36:53.316Z,3.23
2023-10-18T03:39:21.435Z,3.60
2023-10-18T03:41:49.978Z,3.87
2023-10-18T03:44:22.140Z,3.30
2023-10-18T03:46:49.992Z,3.50
2023-10-18T03:49:23.595Z,3.90
2023-10-18T03:51:55.406Z,3.90
2023-10-18T03:54:24.767Z,4.63
2023-10-18T03:56:54.520Z,4.60
2023-10-18T03:59:22.495Z,3.37
2023-10-18T04:02:09.407Z,4.00
2023-10-18T04:04:37.883Z,4.50
2023-10-18T04:07:14.565Z,3.47
2023-10-18T04:09:47.630Z,4.33
2023-10-18T04:12:18.448Z,4.20
2023-10-18T04:14:54.388Z,4.53
2023-10-18T04:17:33.815Z,3.53
2023-10-18T04:20:04.201Z,4.47
2023-10-18T04:22:34.174Z,4.47
2023-10-18T04:25:02.600Z,5.17
2023-10-18T04:27:30.735Z,4.50
2023-10-18T04:30:02.122Z,3.77
2023-10-18T04:32:31.757Z,3.63
2023-10-18T04:35:00.788Z,3.33
2023-10-18T04:37:28.238Z,4.43
2023-10-18T04:39:58.865Z,7.80
2023-10-18T04:42:26.376Z,8.33
2023-10-18T04:44:57.398Z,6.37
2023-10-18T04:47:33.657Z,6.57
2023-10-18T04:50:03.103Z,4.30
2023-10-18T04:52:41.277Z,7.57
2023-10-18T04:55:16.242Z,6.07
2023-10-18T04:57:44.347Z,5.13
2023-10-18T05:00:25.705Z,4.33
2023-10-18T05:02:59.810Z,5.63
2023-10-18T05:05:27.494Z,9.43
2023-10-18T05:07:55.679Z,6.10
2023-10-18T05:10:26.361Z,5.70
2023-10-18T05:13:02.588Z,4.60
2023-10-18T05:15:33.960Z,4.50
2023-10-18T05:18:16.182Z,7.40
2023-10-18T05:20:47.616Z,8.47
2023-10-18T05:23:22.836Z,7.40
2023-10-18T05:25:57.406Z,7.57
2023-10-18T05:28:29.543Z,7.83
2023-10-18T05:31:20.086Z,7.43
2023-10-18T05:33:50.450Z,4.93
2023-10-18T05:36:32.000Z,4.20
2023-10-18T05:39:17.826Z,4.70
2023-10-18T05:41:50.675Z,9.97
2023-10-18T05:44:18.848Z,11.00
2023-10-18T05:46:47.347Z,12.43
2023-10-18T05:49:26.063Z,8.40
2023-10-18T05:52:00.187Z,9.53
2023-10-18T05:54:29.544Z,15.37
2023-10-18T05:56:58.764Z,12.60
2023-10-18T05:59:35.603Z,7.97
2023-10-18T06:02:11.170Z,7.00
2023-10-18T06:04:44.087Z,6.80
2023-10-18T06:07:12.052Z,6.23
2023-10-18T06:09:55.031Z,6.50
2023-10-18T06:12:25.620Z,7.00
2023-10-18T06:14:54.034Z,4.67
2023-10-18T06:17:23.896Z,6.30
2023-10-18T06:19:52.414Z,4.80
2023-10-18T06:22:30.467Z,4.53
2023-10-18T06:25:01.369Z,4.67
2023-10-18T06:27:39.791Z,4.87
2023-10-18T06:30:15.685Z,5.00
2023-10-18T06:32:44.845Z,4.40
2023-10-18T06:35:16.520Z,4.60
2023-10-18T06:37:44.011Z,4.77
2023-10-18T06:40:22.379Z,4.83
2023-10-18T06:42:51.596Z,4.63
2023-10-18T06:45:20.356Z,4.60
2023-10-18T06:47:48.020Z,4.83
2023-10-18T06:50:20.812Z,4.70
2023-10-18T06:52:53.921Z,5.67
2023-10-18T06:55:24.647Z,5.20
2023-10-18T06:57:57.699Z,4.73
2023-10-18T07:00:31.573Z,5.10
2023-10-18T07:03:00.576Z,4.97
2023-10-18T07:05:29.950Z,5.40
2023-10-18T07:07:57.541Z,5.17
2023-10-18T07:10:46.719Z,4.80
2023-10-18T07:13:15.665Z,5.60
2023-10-18T07:15:43.762Z,6.00
2023-10-18T07:18:15.106Z,5.70
2023-10-18T07:20:42.951Z,5.97
2023-10-18T07:23:18.291Z,5.83
2023-10-18T07:25:54.725Z,6.00
2023-10-18T07:28:36.381Z,6.00
2023-10-18T07:31:09.681Z,5.93
2023-10-18T07:33:41.524Z,6.43
2023-10-18T07:36:10.857Z,6.53
2023-10-18T07:38:48.194Z,5.60
2023-10-18T07:41:16.218Z,5.67
2023-10-18T07:43:45.965Z,6.10
2023-10-18T07:46:18.555Z,5.97
2023-10-18T07:48:50.637Z,6.50
2023-10-18T07:51:27.507Z,6.23
2023-10-18T07:53:56.841Z,6.30
2023-10-18T07:56:28.893Z,6.00
2023-10-18T07:59:18.735Z,5.00
2023-10-18T08:01:52.372Z,6.90
2023-10-18T08:04:21.579Z,6.63
2023-10-18T08:06:50.680Z,6.50
2023-10-18T08:09:21.520Z,6.37
2023-10-18T08:11:50.981Z,6.00
2023-10-18T08:14:25.459Z,6.30
2023-10-18T08:16:56.894Z,7.03
2023-10-18T08:19:25.150Z,6.77
2023-10-18T08:22:07.225Z,6.50
2023-10-18T08:24:36.082Z,6.17
2023-10-18T08:27:10.505Z,5.93
2023-10-18T08:29:39.607Z,6.10
2023-10-18T08:32:16.063Z,5.67
2023-10-18T08:34:45.052Z,5.97
2023-10-18T08:37:14.802Z,5.70
2023-10-18T08:39:53.417Z,5.40
2023-10-18T08:42:26.962Z,5.60
2023-10-18T08:44:56.595Z,5.70
2023-10-18T08:47:30.867Z,5.13
2023-10-18T08:49:58.893Z,5.30
2023-10-18T08:52:29.269Z,5.53
2023-10-18T08:54:57.488Z,5.93
2023-10-18T08:57:35.485Z,5.57
2023-10-18T09:00:38.415Z,5.33
2023-10-18T09:03:08.838Z,5.13
2023-10-18T09:05:37.437Z,4.80
2023-10-18T09:08:05.753Z,4.97
2023-10-18T09:10:44.253Z,5.70
2023-10-18T09:13:28.282Z,6.07
2023-10-18T09:16:02.736Z,4.90
2023-10-18T09:18:33.531Z,5.00
2023-10-18T09:21:05.753Z,5.03
2023-10-18T09:23:33.607Z,4.60
2023-10-18T09:26:07.452Z,5.00
2023-10-18T09:28:36.509Z,4.67
2023-10-18T09:31:12.208Z,4.70
2023-10-18T09:33:41.703Z,5.10
2023-10-18T09:36:24.837Z,4.30
2023-10-18T09:38:54.098Z,4.50
2023-10-18T09:41:22.404Z,4.70
2023-10-18T09:43:50.694Z,4.80
2023-10-18T09:46:20.891Z,4.67
2023-10-18T09:48:48.749Z,4.40
2023-10-18T09:51:22.440Z,4.17
2023-10-18T09:53:51.781Z,4.10
2023-10-18T09:56:25.446Z,4.70
2023-10-18T09:59:05.522Z,4.13
2023-10-18T10:01:49.592Z,4.00
2023-10-18T10:04:19.580Z,4.20
2023-10-18T10:06:48.109Z,4.30
2023-10-18T10:09:16.957Z,4.05
2023-10-18T10:11:46.617Z,4.03
2023-10-18T10:14:17.133Z,3.72
2023-10-18T10:16:53.593Z,3.40
2023-10-18T10:19:25.270Z,3.53
2023-10-18T10:21:55.737Z,3.83
2023-10-18T10:24:32.648Z,4.13
2023-10-18T10:27:23.063Z,3.97
2023-10-18T10:29:57.576Z,3.90
2023-10-18T10:32:27.590Z,3.33
2023-10-18T10:35:16.089Z,4.05
2023-10-18T10:37:52.111Z,3.40
2023-10-18T10:40:39.639Z,3.72
2023-10-18T10:43:11.036Z,3.58
2023-10-18T10:45:40.354Z,3.30
2023-10-18T10:48:37.966Z,3.67
2023-10-18T10:51:13.055Z,3.33
2023-10-18T10:53:50.589Z,3.30
2023-10-18T10:56:22.167Z,2.90
2023-10-18T10:58:56.585Z,3.10
2023-10-18T11:01:41.620Z,3.38
2023-10-18T11:04:25.402Z,2.85
2023-10-18T11:06:57.278Z,2.90
2023-10-18T11:09:28.576Z,3.08
2023-10-18T11:11:57.760Z,2.70
2023-10-18T11:14:28.962Z,2.90
2023-10-18T11:17:05.050Z,2.55
2023-10-18T11:19:34.143Z,2.60
2023-10-18T11:22:01.773Z,2.53
2023-10-18T11:24:29.868Z,3.20
2023-10-18T11:26:59.434Z,2.67
2023-10-18T11:29:26.892Z,3.08
2023-10-18T11:31:56.514Z,2.88
2023-10-18T11:34:24.637Z,2.70
2023-10-18T11:36:56.196Z,2.60
2023-10-18T11:39:30.778Z,2.78
2023-10-18T11:41:59.055Z,2.88
2023-10-18T11:44:28.951Z,2.85
2023-10-18T11:47:09.679Z,2.58
2023-10-18T11:49:39.045Z,2.53
2023-10-18T11:52:15.530Z,2.63
2023-10-18T11:54:44.648Z,2.65
2023-10-18T11:57:26.182Z,2.63
2023-10-18T11:59:55.685Z,2.47
2023-10-18T12:02:27.048Z,2.78
2023-10-18T12:04:55.185Z,2.60
2023-10-18T12:07:25.251Z,2.78
2023-10-18T12:09:53.332Z,2.40
2023-10-18T12:12:21.443Z,2.42
2023-10-18T12:14:49.675Z,2.90
2023-10-18T12:17:18.383Z,2.63
2023-10-18T12:19:45.871Z,2.38
2023-10-18T12:22:16.399Z,2.80
2023-10-18T12:24:45.399Z,2.63
2023-10-18T12:27:34.967Z,2.72
2023-10-18T12:30:24.715Z,2.40
2023-10-18T12:32:58.743Z,2.67
2023-10-18T12:35:30.192Z,2.40
2023-10-18T12:37:58.042Z,2.17
2023-10-18T12:40:33.554Z,2.30
2023-10-18T12:43:06.163Z,2.10
2023-10-18T12:45:43.101Z,2.33
2023-10-18T12:48:13.650Z,2.40
2023-10-18T12:50:46.056Z,2.33
2023-10-18T12:56:24.592Z,2.07
2023-10-18T12:58:56.454Z,2.27
2023-10-18T13:01:32.255Z,2.23
2023-10-18T13:03:59.769Z,1.90
2023-10-18T13:06:32.570Z,2.20
2023-10-18T13:09:16.549Z,2.15
2023-10-18T13:11:47.382Z,2.35
2023-10-18T13:14:18.142Z,2.50
2023-10-18T13:16:45.756Z,2.20
2023-10-18T13:19:16.059Z,2.13
2023-10-18T13:21:44.433Z,2.10
2023-10-18T13:24:29.986Z,2.22
2023-10-18T13:27:02.534Z,2.10
2023-10-18T13:29:33.290Z,2.10
2023-10-18T13:32:07.938Z,2.20
2023-10-18T13:34:38.209Z,2.10
2023-10-18T13:37:11.056Z,2.13
2023-10-18T13:39:40.408Z,1.92
2023-10-18T13:42:12.775Z,1.80
2023-10-18T13:44:42.227Z,2.38
2023-10-18T13:47:13.703Z,2.10
2023-10-18T13:49:43.103Z,1.80
2023-10-18T13:52:12.227Z,2.22
2023-10-18T13:54:40.023Z,2.10
2023-10-18T13:57:08.923Z,2.20
2023-10-18T13:59:39.069Z,2.20
2023-10-18T14:02:07.251Z,2.00
2023-10-18T14:04:36.235Z,2.00
2023-10-18T14:07:06.070Z,2.10
2023-10-18T14:09:35.323Z,2.00
2023-10-18T14:12:03.357Z,2.00
2023-10-18T14:14:34.085Z,2.00
2023-10-18T14:17:04.439Z,1.93
2023-10-18T14:19:32.619Z,1.77
2023-10-18T14:22:00.386Z,1.90
2023-10-18T14:24:30.156Z,1.80
2023-10-18T14:27:00.261Z,1.87
2023-10-18T14:29:27.875Z,1.83
2023-10-18T14:31:56.865Z,2.20
2023-10-18T14:34:24.477Z,1.90
2023-10-18T14:36:52.555Z,2.10
2023-10-18T14:39:35.580Z,1.90
2023-10-18T14:42:07.861Z,1.93
2023-10-18T14:44:35.514Z,1.90
2023-10-18T14:47:07.253Z,2.10
2023-10-18T14:49:35.051Z,2.10
2023-10-18T14:52:04.965Z,1.97
2023-10-18T14:54:32.481Z,2.00
2023-10-18T14:56:59.934Z,2.10
2023-10-18T14:59:27.478Z,2.00
2023-10-18T15:01:55.878Z,1.90
2023-10-18T15:04:25.606Z,2.50
2023-10-18T15:06:54.896Z,2.00
2023-10-18T15:09:22.926Z,2.03
2023-10-18T15:11:52.327Z,1.93
2023-10-18T15:14:20.639Z,2.30
2023-10-18T15:16:48.218Z,2.17
2023-10-18T15:19:16.674Z,2.13
2023-10-18T15:21:47.188Z,2.17
2023-10-18T15:24:15.038Z,2.27
2023-10-18T15:26:42.700Z,2.13
2023-10-18T15:29:10.335Z,2.13
2023-10-18T15:31:38.177Z,2.00
2023-10-18T15:34:06.647Z,2.00
2023-10-18T15:36:34.123Z,2.30
2023-10-18T15:39:02.972Z,2.13
2023-10-18T15:41:30.551Z,2.40
2023-10-18T15:44:01.464Z,2.20
2023-10-18T15:46:30.617Z,2.13
2023-10-18T15:48:59.336Z,2.17
2023-10-18T15:51:27.738Z,2.20
2023-10-18T15:53:58.304Z,2.20
2023-10-18T15:56:28.525Z,2.33
2023-10-18T15:58:57.164Z,2.20
2023-10-18T16:01:25.494Z,2.50
2023-10-18T16:03:54.036Z,2.30
2023-10-18T16:06:22.311Z,2.33
2023-10-18T16:08:52.878Z,2.30
2023-10-18T16:11:23.338Z,2.27
2023-10-18T16:13:54.590Z,2.20
2023-10-18T16:16:25.385Z,2.30
2023-10-18T16:18:56.626Z,2.10
2023-10-18T16:21:25.587Z,2.30
2023-10-18T16:23:53.854Z,2.10
2023-10-18T16:26:22.921Z,2.13
2023-10-18T16:28:53.074Z,2.10
2023-10-18T16:31:24.482Z,2.10
2023-10-18T16:33:54.762Z,2.00
2023-10-18T16:36:22.265Z,2.20
2023-10-18T16:38:52.026Z,2.10
2023-10-18T16:41:19.590Z,2.30
2023-10-18T16:43:48.071Z,2.27
2023-10-18T16:46:17.859Z,2.50
2023-10-18T16:48:47.245Z,2.10
2023-10-18T16:51:16.115Z,2.10
2023-10-18T16:53:47.077Z,2.40
2023-10-18T16:56:15.577Z,2.00
2023-10-18T16:58:43.424Z,2.03
2023-10-18T17:01:13.798Z,2.40
2023-10-18T17:03:43.708Z,2.70
2023-10-18T17:06:14.367Z,2.40
2023-10-18T17:08:43.087Z,2.20
2023-10-18T17:11:13.552Z,2.20
2023-10-18T17:13:45.136Z,2.43
2023-10-18T17:16:14.060Z,2.27
2023-10-18T17:18:43.904Z,2.23
2023-10-18T17:21:19.917Z,2.50
2023-10-18T17:23:48.553Z,2.33
2023-10-18T17:26:18.506Z,2.30
2023-10-18T17:28:47.429Z,2.47
2023-10-18T17:31:15.478Z,2.10
2023-10-18T17:33:44.358Z,2.40
2023-10-18T17:36:11.913Z,2.07
2023-10-18T17:38:39.566Z,2.40
2023-10-18T17:41:07.151Z,2.40
2023-10-18T17:43:34.689Z,2.40
2023-10-18T17:46:02.175Z,2.70
2023-10-18T17:48:30.169Z,2.47
2023-10-18T17:50:59.038Z,2.37
2023-10-18T17:53:26.531Z,2.20
2023-10-18T17:55:55.193Z,2.30
2023-10-18T17:58:22.657Z,2.67
2023-10-18T18:00:54.477Z,2.50
2023-10-18T18:03:24.424Z,2.50
2023-10-18T18:05:52.204Z,2.40
2023-10-18T18:08:25.698Z,2.47
2023-10-18T18:10:54.584Z,2.50
2023-10-18T18:13:23.137Z,2.80
2023-10-18T18:15:51.788Z,2.60
2023-10-18T18:18:20.470Z,2.20
2023-10-18T18:20:49.859Z,2.40
2023-10-18T18:23:17.557Z,2.40
2023-10-18T18:25:48.149Z,2.30
2023-10-18T18:28:17.141Z,2.67
2023-10-18T18:30:44.969Z,2.60
2023-10-18T18:33:13.897Z,2.70
2023-10-18T18:35:41.984Z,2.57
2023-10-18T18:38:09.683Z,2.70
2023-10-18T18:40:37.342Z,2.40
2023-10-18T18:43:06.464Z,2.63
2023-10-18T18:45:34.197Z,2.60
2023-10-18T18:48:01.811Z,3.00
2023-10-18T18:50:29.440Z,2.87
2023-10-18T18:52:58.064Z,3.40
2023-10-18T18:55:27.479Z,3.00
2023-10-18T18:57:56.148Z,3.10
2023-10-18T19:00:26.648Z,3.17
2023-10-18T19:02:55.886Z,3.03
2023-10-18T19:05:24.675Z,3.30
2023-10-18T19:07:54.581Z,2.93
2023-10-18T19:10:22.472Z,3.03
2023-10-18T19:12:52.000Z,3.00
2023-10-18T19:15:22.139Z,3.30
2023-10-18T19:17:52.532Z,3.20
2023-10-18T19:20:23.445Z,2.80
2023-10-18T19:22:52.281Z,3.30
2023-10-18T19:25:21.501Z,3.10
2023-10-18T19:27:50.039Z,3.30
2023-10-18T19:30:20.615Z,3.00
2023-10-18T19:32:48.450Z,3.00
2023-10-18T19:35:18.341Z,2.90
2023-10-18T19:37:46.144Z,3.33
2023-10-18T19:40:14.464Z,3.13
2023-10-18T19:42:42.916Z,3.10
2023-10-18T19:45:13.909Z,2.60
2023-10-18T19:47:41.829Z,2.57
2023-10-18T19:50:10.455Z,2.90
2023-10-18T19:52:39.852Z,2.90
2023-10-18T19:55:08.613Z,3.13
2023-10-18T19:57:36.292Z,2.90
2023-10-18T20:00:07.989Z,2.87
2023-10-18T20:02:35.593Z,3.20
2023-10-18T20:05:04.901Z,2.87
2023-10-18T20:07:32.406Z,3.10
2023-10-18T20:10:02.713Z,2.97
2023-10-18T20:12:31.107Z,2.93
2023-10-18T20:14:58.640Z,3.10
2023-10-18T20:17:26.332Z,3.17
2023-10-18T20:19:54.269Z,3.20
2023-10-18T20:22:22.454Z,3.03
2023-10-18T20:24:52.346Z,3.03
2023-10-18T20:27:21.305Z,3.47
2023-10-18T20:29:48.828Z,3.37
2023-10-18T20:32:16.390Z,3.13
2023-10-18T20:34:43.920Z,2.97
2023-10-18T20:37:11.420Z,3.10
2023-10-18T20:39:50.884Z,3.03
2023-10-18T20:42:22.003Z,3.00
2023-10-18T20:44:50.011Z,2.90
2023-10-18T20:47:17.839Z,3.13
2023-10-18T20:49:50.364Z,3.23
2023-10-18T20:52:17.925Z,3.07
2023-10-18T20:54:46.884Z,3.17
2023-10-18T20:57:18.112Z,3.10
2023-10-18T20:59:46.957Z,2.70
2023-10-18T21:02:18.038Z,2.80
2023-10-18T21:04:48.311Z,2.70
2023-10-18T21:07:17.603Z,2.73
2023-10-18T21:09:45.984Z,2.73
2023-10-18T21:12:17.294Z,2.83
2023-10-18T21:14:46.146Z,2.60
2023-10-18T21:17:15.667Z,2.57
2023-10-18T21:19:44.284Z,2.47
2023-10-18T21:22:12.373Z,2.97
2023-10-18T21:24:40.914Z,2.97
2023-10-18T21:27:08.457Z,2.90
2023-10-18T21:29:37.149Z,2.80
2023-10-18T21:32:06.345Z,2.80
2023-10-18T21:34:35.403Z,2.77
2023-10-18T21:37:03.090Z,2.83
2023-10-18T21:39:31.922Z,2.83
2023-10-18T21:41:59.414Z,2.70
2023-10-18T21:44:27.218Z,2.83
2023-10-18T21:46:55.579Z,2.80
2023-10-18T21:49:23.463Z,2.70
2023-10-18T21:51:52.834Z,2.47
2023-10-18T21:54:20.987Z,2.70
2023-10-18T21:56:48.471Z,2.43
2023-10-18T21:59:15.962Z,2.80
2023-10-18T22:01:44.976Z,3.17
2023-10-18T22:04:12.654Z,2.77
2023-10-18T22:06:40.731Z,2.60
2023-10-18T22:09:25.295Z,2.73
2023-10-18T22:11:53.263Z,2.80
2023-10-18T22:14:20.892Z,2.80
2023-10-18T22:16:55.111Z,3.00
2023-10-18T22:19:27.977Z,3.43
2023-10-18T22:21:55.993Z,2.97
2023-10-18T22:24:28.649Z,3.20
2023-10-18T22:26:58.095Z,3.30
2023-10-18T22:29:28.578Z,3.37
2023-10-18T22:32:10.572Z,3.30
2023-10-18T22:34:43.791Z,3.63
2023-10-18T22:37:13.518Z,3.40
2023-10-18T22:39:43.136Z,3.57
2023-10-18T22:42:14.246Z,3.33
2023-10-18T22:44:42.864Z,3.83
2023-10-18T22:47:21.475Z,3.60
2023-10-18T22:49:50.716Z,3.40
2023-10-18T22:52:27.392Z,3.30
2023-10-18T22:55:00.845Z,3.73
2023-10-18T22:57:36.325Z,3.53
2023-10-18T23:00:10.365Z,4.07
2023-10-18T23:02:39.906Z,4.23
2023-10-18T23:05:17.112Z,3.87
2023-10-18T23:07:52.119Z,4.00
2023-10-18T23:10:36.498Z,4.20
2023-10-18T23:13:07.578Z,4.00
2023-10-18T23:15:48.575Z,3.93
2023-10-18T23:18:18.129Z,3.77
2023-10-18T23:20:58.800Z,4.00
2023-10-18T23:23:38.437Z,4.00
2023-10-18T23:26:25.679Z,4.23
2023-10-18T23:28:53.344Z,4.20
2023-10-18T23:31:31.970Z,4.23
2023-10-18T23:34:10.416Z,4.50
2023-10-18T23:36:38.094Z,4.87
2023-10-18T23:39:10.140Z,4.60
2023-10-18T23:41:42.651Z,4.80
2023-10-18T23:44:13.947Z,4.80
2023-10-18T23:46:58.843Z,5.23
2023-10-18T23:49:29.948Z,5.30
2023-10-18T23:52:11.629Z,5.57
2023-10-18T23:54:39.270Z,5.70
2023-10-18T23:57:12.353Z,5.77
2023-10-18T23:59:40.722Z,5.40
